createdAt,value
2022-09-02T00:00:36.920Z,1019.051392
2022-09-02T00:01:36.775Z,1019.077515
2022-09-02T00:02:31.315Z,1018.987793
2022-09-02T00:03:37.966Z,1018.984985
2022-09-02T00:04:29.934Z,1019.053284
2022-09-02T00:05:31.148Z,1019.011963
2022-09-02T00:06:26.420Z,1019.024231
2022-09-02T00:07:31.105Z,1019.043274
2022-09-02T00:09:22.496Z,1019.016113
2022-09-02T00:10:23.987Z,1019.039246
2022-09-02T00:11:23.050Z,1018.991455
2022-09-02T00:12:23.533Z,1019.041077
2022-09-02T00:13:18.875Z,1018.964294
2022-09-02T00:14:20.670Z,1018.951355
2022-09-02T00:15:12.599Z,1018.962463
2022-09-02T00:16:09.534Z,1019.000854
2022-09-02T00:17:10.148Z,1018.988708
2022-09-02T00:19:08.054Z,1018.92981
2022-09-02T00:19:59.824Z,1018.87085
2022-09-02T00:20:59.271Z,1018.952209
2022-09-02T00:21:55.115Z,1018.904541
2022-09-02T00:22:54.484Z,1018.861511
2022-09-02T00:23:49.320Z,1018.89679
2022-09-02T00:24:51.921Z,1018.81073
2022-09-02T00:25:51.922Z,1018.840881
2022-09-02T00:26:51.593Z,1018.860229
2022-09-02T00:26:57.083Z,1018.860229
2022-09-02T00:27:55.162Z,1018.821838
2022-09-02T00:28:48.907Z,1018.834534
2022-09-02T00:29:48.256Z,1018.853577
2022-09-02T00:31:33.717Z,1018.827881
2022-09-02T00:32:17.820Z,1018.937256
2022-09-02T00:33:18.124Z,1018.854065
2022-09-02T00:34:25.937Z,1018.891418
2022-09-02T00:35:24.273Z,1018.87085
2022-09-02T00:36:27.480Z,1018.850342
2022-09-02T00:37:26.512Z,1018.821838
2022-09-02T00:38:28.633Z,1018.848938
2022-09-02T00:39:26.823Z,1018.885803
2022-09-02T00:40:25.465Z,1018.842773
2022-09-02T00:41:25.737Z,1018.776001
2022-09-02T00:42:26.669Z,1018.814392
2022-09-02T00:43:28.716Z,1018.849915
2022-09-02T00:44:27.313Z,1018.856445
2022-09-02T00:45:28.861Z,1018.800354
2022-09-02T00:46:33.262Z,1018.795715
2022-09-02T00:47:36.274Z,1018.772156
2022-09-02T00:48:39.165Z,1018.745056
2022-09-02T00:49:43.501Z,1018.727966
2022-09-02T00:50:46.421Z,1018.745605
2022-09-02T00:51:44.561Z,1018.729675
2022-09-02T00:52:44.526Z,1018.775818
2022-09-02T00:53:46.860Z,1018.737488
2022-09-02T00:54:44.580Z,1018.759583
2022-09-02T00:55:46.688Z,1018.786682
2022-09-02T00:56:49.775Z,1018.763062
2022-09-02T00:57:51.792Z,1018.727722
2022-09-02T00:59:51.733Z,1018.739014
2022-09-02T01:00:52.241Z,1018.684875
2022-09-02T01:01:54.129Z,1018.734985
2022-09-02T01:02:51.933Z,1018.672424
2022-09-02T01:03:56.243Z,1018.688171
2022-09-02T01:04:58.193Z,1018.687256
2022-09-02T01:05:56.721Z,1018.747925
2022-09-02T01:07:02.018Z,1018.733032
2022-09-02T01:09:06.769Z,1018.650757
2022-09-02T01:10:06.804Z,1018.748047
2022-09-02T01:11:06.368Z,1018.711487
2022-09-02T01:12:08.547Z,1018.632996
2022-09-02T01:14:06.905Z,1018.617188
2022-09-02T01:15:07.119Z,1018.624146
2022-09-02T01:16:08.053Z,1018.606628
2022-09-02T01:17:04.818Z,1018.64502
2022-09-02T01:19:07.335Z,1018.729675
2022-09-02T01:20:14.648Z,1018.697693
2022-09-02T01:21:11.983Z,1018.673645
2022-09-02T01:22:08.610Z,1018.695984
2022-09-02T01:24:10.092Z,1018.630737
2022-09-02T01:25:54.250Z,1018.65625
2022-09-02T01:26:33.928Z,1018.635437
2022-09-02T01:27:32.015Z,1018.682495
2022-09-02T01:28:30.461Z,1018.625427
2022-09-02T01:29:26.033Z,1018.57782
2022-09-02T01:30:25.682Z,1018.587646
2022-09-02T01:31:20.300Z,1018.621338
2022-09-02T01:32:19.947Z,1018.573303
2022-09-02T01:33:15.313Z,1018.624207
2022-09-02T01:34:14.353Z,1018.608337
2022-09-02T01:35:12.468Z,1018.622803
2022-09-02T01:36:12.614Z,1018.579773
2022-09-02T01:37:11.805Z,1018.556396
2022-09-02T01:38:13.823Z,1018.533447
2022-09-02T01:39:09.108Z,1018.535034
2022-09-02T01:40:11.948Z,1018.550964
2022-09-02T01:41:04.778Z,1018.535034
2022-09-02T01:42:07.860Z,1018.511108
2022-09-02T01:43:00.628Z,1018.503235
2022-09-02T01:44:57.969Z,1018.468018
2022-09-02T01:46:00.114Z,1018.409729
2022-09-02T01:47:00.312Z,1018.486328
2022-09-02T01:47:58.629Z,1018.462158
2022-09-02T01:49:01.466Z,1018.450928
2022-09-02T01:49:56.750Z,1018.492859
2022-09-02T01:50:56.539Z,1018.492859
2022-09-02T01:51:51.728Z,1018.468567
2022-09-02T01:52:50.614Z,1018.425598
2022-09-02T01:53:48.754Z,1018.479736
2022-09-02T01:54:51.705Z,1018.46759
2022-09-02T01:55:47.372Z,1018.459167
2022-09-02T01:56:48.843Z,1018.424561
2022-09-02T01:57:44.244Z,1018.397522
2022-09-02T01:58:46.609Z,1018.424561
2022-09-02T01:59:44.049Z,1018.419922
2022-09-02T02:00:45.535Z,1018.415161
2022-09-02T02:01:49.652Z,1018.399292
2022-09-02T02:02:45.360Z,1018.4646
2022-09-02T02:04:52.206Z,1018.44873
2022-09-02T02:05:46.645Z,1018.41687
2022-09-02T02:06:53.399Z,1018.429688
2022-09-02T02:08:39.833Z,1018.445251
2022-09-02T02:09:23.322Z,1018.357361
2022-09-02T02:10:22.007Z,1018.373291
2022-09-02T02:11:23.973Z,1018.449768
2022-09-02T02:12:26.865Z,1018.513306
2022-09-02T02:13:28.661Z,1018.45166
2022-09-02T02:14:26.827Z,1018.434387
2022-09-02T02:16:29.214Z,1018.474548
2022-09-02T02:17:27.758Z,1018.4729
2022-09-02T02:18:30.077Z,1018.488892
2022-09-02T02:19:31.444Z,1018.468201
2022-09-02T02:20:27.371Z,1018.479309
2022-09-02T02:21:29.087Z,1018.428589
2022-09-02T02:22:27.802Z,1018.43512
2022-09-02T02:24:33.179Z,1018.412415
2022-09-02T02:25:29.653Z,1018.378723
2022-09-02T02:26:39.394Z,1018.385254
2022-09-02T02:27:40.414Z,1018.364502
2022-09-02T02:28:38.370Z,1018.364502
2022-09-02T02:29:39.898Z,1018.398132
2022-09-02T02:30:36.271Z,1018.48645
2022-09-02T02:31:37.673Z,1018.414368
2022-09-02T02:32:34.551Z,1018.420898
2022-09-02T02:33:37.540Z,1018.456299
2022-09-02T02:34:36.595Z,1018.43573
2022-09-02T02:35:39.546Z,1018.45343
2022-09-02T02:36:37.621Z,1018.429565
2022-09-02T02:37:42.435Z,1018.451904
2022-09-02T02:38:37.823Z,1018.413818
2022-09-02T02:39:45.104Z,1018.408997
2022-09-02T02:40:44.552Z,1018.412109
2022-09-02T02:41:48.147Z,1018.431335
2022-09-02T02:42:46.682Z,1018.407349
2022-09-02T02:44:45.326Z,1018.391541
2022-09-02T02:45:46.799Z,1018.468018
2022-09-02T02:46:48.321Z,1018.344299
2022-09-02T02:47:46.876Z,1018.35553
2022-09-02T02:49:48.494Z,1018.450684
2022-09-02T02:50:48.945Z,1018.492493
2022-09-02T02:51:49.664Z,1018.433655
2022-09-02T02:53:33.435Z,1018.487122
2022-09-02T02:54:13.489Z,1018.431335
2022-09-02T02:55:12.751Z,1018.389648
2022-09-02T02:56:15.460Z,1018.408997
2022-09-02T02:57:16.720Z,1018.310303
2022-09-02T02:58:16.590Z,1018.434448
2022-09-02T02:59:15.179Z,1018.464783
2022-09-02T03:00:13.737Z,1018.378967
2022-09-02T03:01:15.346Z,1018.463867
2022-09-02T03:02:13.942Z,1018.450684
2022-09-02T03:03:13.473Z,1018.404907
2022-09-02T03:04:10.488Z,1018.389038
2022-09-02T03:05:15.805Z,1018.360046
2022-09-02T03:06:10.552Z,1018.301086
2022-09-02T03:07:14.063Z,1018.374817
2022-09-02T03:08:13.561Z,1018.301086
2022-09-02T03:09:17.366Z,1018.358887
2022-09-02T03:10:17.396Z,1018.338257
2022-09-02T03:11:19.589Z,1018.314575
2022-09-02T03:12:14.030Z,1018.352722
2022-09-02T03:14:08.727Z,1018.352722
2022-09-02T03:15:12.842Z,1018.359192
2022-09-02T03:16:05.887Z,1018.370361
2022-09-02T03:17:04.666Z,1018.354492
2022-09-02T03:18:06.176Z,1018.292236
2022-09-02T03:19:59.413Z,1018.34967
2022-09-02T03:21:12.276Z,1018.341675
2022-09-02T03:22:11.340Z,1018.359131
2022-09-02T03:23:18.678Z,1018.327393
2022-09-02T03:24:11.325Z,1018.323364
2022-09-02T03:25:10.543Z,1018.305908
2022-09-02T03:26:08.044Z,1018.332886
2022-09-02T03:27:07.366Z,1018.285217
2022-09-02T03:28:02.674Z,1018.315979
2022-09-02T03:30:00.433Z,1018.269409
2022-09-02T03:31:02.383Z,1018.30011
2022-09-02T03:31:54.928Z,1018.338257
2022-09-02T03:33:01.760Z,1018.290588
2022-09-02T03:33:04.307Z,1018.290588
2022-09-02T03:34:52.081Z,1018.339355
2022-09-02T03:35:37.425Z,1018.278748
2022-09-02T03:36:38.273Z,1018.25177
2022-09-02T03:37:41.879Z,1018.176941
2022-09-02T03:39:39.650Z,1018.287537
2022-09-02T03:40:37.069Z,1018.239807
2022-09-02T03:41:57.598Z,1018.254028
2022-09-02T03:43:00.833Z,1018.253418
2022-09-02T03:44:00.274Z,1018.206055
2022-09-02T03:45:02.482Z,1018.196472
2022-09-02T03:45:59.803Z,1018.222168
2022-09-02T03:47:04.529Z,1018.185669
2022-09-02T03:48:05.412Z,1018.254028
2022-09-02T03:49:04.820Z,1018.219116
2022-09-02T03:50:02.567Z,1018.222229
2022-09-02T03:51:07.593Z,1018.206299
2022-09-02T03:52:09.387Z,1018.209595
2022-09-02T03:54:36.049Z,1018.263733
2022-09-02T03:55:16.377Z,1018.196777
2022-09-02T03:56:16.199Z,1018.266846
2022-09-02T03:57:11.283Z,1018.189026
2022-09-02T03:58:12.175Z,1018.262634
2022-09-02T03:59:12.243Z,1018.171997
2022-09-02T04:00:13.197Z,1018.197021
2022-09-02T04:01:08.287Z,1018.265686
2022-09-02T04:02:11.062Z,1018.198486
2022-09-02T04:03:03.654Z,1018.179871
2022-09-02T04:04:05.257Z,1018.179871
2022-09-02T04:05:05.263Z,1018.217896
2022-09-02T04:05:15.639Z,1018.217896
2022-09-02T04:05:15.719Z,1018.217896
2022-09-02T04:06:03.696Z,1018.202026
2022-09-02T04:07:05.143Z,1018.202026
2022-09-02T04:08:00.690Z,1018.240234
2022-09-02T04:09:59.923Z,1018.241882
2022-09-02T04:11:01.098Z,1018.128906
2022-09-02T04:11:56.337Z,1018.167236
2022-09-02T04:12:58.492Z,1018.154541
2022-09-02T04:15:02.614Z,1018.14978
2022-09-02T04:16:02.846Z,1018.199158
2022-09-02T04:17:01.849Z,1018.145142
2022-09-02T04:18:03.513Z,1018.253235
2022-09-02T04:20:06.171Z,1018.166199
2022-09-02T04:21:00.724Z,1018.168884
2022-09-02T04:22:03.530Z,1018.238831
2022-09-02T04:22:57.026Z,1018.150208
2022-09-02T04:24:53.565Z,1018.119568
2022-09-02T04:25:51.509Z,1018.209106
2022-09-02T04:26:52.839Z,1018.130615
2022-09-02T04:27:49.197Z,1018.1073
2022-09-02T04:29:51.147Z,1018.199524
2022-09-02T04:30:55.733Z,1018.199524
2022-09-02T04:31:48.209Z,1018.098877
2022-09-02T04:32:48.937Z,1018.199524
2022-09-02T04:34:47.229Z,1018.164063
2022-09-02T04:35:43.664Z,1018.186462
2022-09-02T04:36:45.925Z,1018.144043
2022-09-02T04:38:33.216Z,1018.111938
2022-09-02T04:39:13.144Z,1018.115173
2022-09-02T04:40:11.185Z,1018.119385
2022-09-02T04:41:10.192Z,1018.15332
2022-09-02T04:42:04.961Z,1018.151306
2022-09-02T04:43:11.405Z,1018.173645
2022-09-02T04:44:06.846Z,1018.1073
2022-09-02T04:45:08.583Z,1018.094055
2022-09-02T04:46:08.704Z,1018.144043
2022-09-02T04:47:09.367Z,1018.123352
2022-09-02T04:48:09.929Z,1018.166199
2022-09-02T04:49:10.122Z,1018.193298
2022-09-02T04:50:11.673Z,1018.115173
2022-09-02T04:51:06.426Z,1018.134521
2022-09-02T04:52:08.116Z,1018.11853
2022-09-02T04:53:00.472Z,1018.166199
2022-09-02T04:54:03.153Z,1018.147034
2022-09-02T04:54:57.332Z,1018.074036
2022-09-02T04:55:58.369Z,1018.171021
2022-09-02T04:56:55.752Z,1018.139221
2022-09-02T04:57:54.224Z,1018.15033
2022-09-02T04:58:56.496Z,1018.174133
2022-09-02T04:59:55.671Z,1018.220337
2022-09-02T05:00:51.450Z,1018.099365
2022-09-02T05:01:53.914Z,1018.161499
2022-09-02T05:02:48.740Z,1018.193298
2022-09-02T05:04:49.099Z,1018.139221
2022-09-02T05:05:50.955Z,1018.115173
2022-09-02T05:06:57.508Z,1018.158142
2022-09-02T05:08:02.226Z,1018.115173
2022-09-02T05:10:01.150Z,1018.180481
2022-09-02T05:11:31.484Z,1018.215576
2022-09-02T05:12:12.295Z,1018.17749
2022-09-02T05:13:10.278Z,1018.210571
2022-09-02T05:15:08.403Z,1018.221863
2022-09-02T05:16:09.027Z,1018.144043
2022-09-02T05:17:07.803Z,1018.144043
2022-09-02T05:18:05.088Z,1018.220337
2022-09-02T05:19:00.327Z,1018.162903
2022-09-02T05:20:03.616Z,1018.201111
2022-09-02T05:21:00.214Z,1018.174133
2022-09-02T05:22:02.720Z,1018.250427
2022-09-02T05:23:00.697Z,1018.172607
2022-09-02T05:24:01.816Z,1018.153442
2022-09-02T05:24:54.970Z,1018.191589
2022-09-02T05:25:54.371Z,1018.237854
2022-09-02T05:26:49.168Z,1018.167847
2022-09-02T05:31:13.980Z,1018.099426
2022-09-02T05:31:49.937Z,1018.164917
2022-09-02T05:42:40.673Z,1018.077148
2022-09-02T05:44:59.607Z,1017.981018
2022-09-02T05:46:14.343Z,1017.953857
2022-09-02T05:47:16.776Z,1017.971069
2022-09-02T05:48:16.973Z,1017.974854
2022-09-02T05:50:16.040Z,1018.021606
2022-09-02T05:56:06.650Z,1017.99646
2022-09-02T05:58:21.324Z,1017.974487
2022-09-02T06:00:53.828Z,1017.890991
2022-09-02T06:03:37.214Z,1017.889221
2022-09-02T06:04:24.963Z,1017.865417
2022-09-02T06:05:27.852Z,1017.87915
2022-09-02T06:11:20.865Z,1017.837524
2022-09-02T06:13:44.902Z,1017.839966
2022-09-02T06:15:26.366Z,1017.887451
2022-09-02T06:17:52.446Z,1017.966553
2022-09-02T06:19:53.010Z,1017.907349
2022-09-02T06:23:45.811Z,1017.923096
2022-09-02T06:24:27.604Z,1017.992554
2022-09-02T06:25:25.252Z,1017.934814
2022-09-02T06:26:26.745Z,1017.969482
2022-09-02T06:27:22.160Z,1017.97998
2022-09-02T06:28:20.688Z,1018.102051
2022-09-02T06:29:17.119Z,1018.031372
2022-09-02T06:30:16.956Z,1018.012634
2022-09-02T06:31:12.096Z,1017.97052
2022-09-02T06:32:12.245Z,1018.023376
2022-09-02T06:33:06.609Z,1018.075989
2022-09-02T06:34:07.700Z,1018.020508
2022-09-02T06:34:59.249Z,1017.995361
2022-09-02T06:35:58.684Z,1018.037231
2022-09-02T06:36:53.108Z,1018.019409
2022-09-02T06:37:53.388Z,1017.991333
2022-09-02T06:38:49.835Z,1018.044067
2022-09-02T06:39:48.775Z,1018.068298
2022-09-02T06:40:42.683Z,1018.138245
2022-09-02T06:41:42.377Z,1018.034851
2022-09-02T06:42:36.716Z,1018.049377
2022-09-02T06:44:32.720Z,1017.998901
2022-09-02T06:45:30.547Z,1018.060486
2022-09-02T06:46:25.976Z,1018.052979
2022-09-02T06:47:24.241Z,1018.098694
2022-09-02T06:48:18.613Z,1017.974609
2022-09-02T06:49:21.209Z,1018.012756
2022-09-02T06:50:13.838Z,1018.016541
2022-09-02T06:51:13.060Z,1018.077087
2022-09-02T06:52:09.266Z,1018.083557
2022-09-02T06:53:06.643Z,1018.083557
2022-09-02T06:54:06.787Z,1018.079834
2022-09-02T06:55:01.097Z,1018.081787
2022-09-02T06:56:02.303Z,1018.082886
2022-09-02T06:57:00.094Z,1018.044556
2022-09-02T06:57:51.903Z,1018.058716
2022-09-02T06:58:55.126Z,1018.060242
2022-09-02T06:59:47.478Z,1018.02179
2022-09-02T07:00:48.832Z,1018.068298
2022-09-02T07:01:41.627Z,1018.04895
2022-09-02T07:02:38.873Z,1017.9646
2022-09-02T07:04:25.345Z,1018.059937
2022-09-02T07:05:06.931Z,1017.98761
2022-09-02T07:06:05.607Z,1017.989502
2022-09-02T07:07:06.939Z,1018.000732
2022-09-02T07:08:05.467Z,1018.041687
2022-09-02T07:09:06.677Z,1018.021118
2022-09-02T07:10:03.067Z,1018.012268
2022-09-02T07:11:08.785Z,1018.058289
2022-09-02T07:12:07.907Z,1017.980591
2022-09-02T07:13:11.199Z,1018.007568
2022-09-02T07:14:12.633Z,1017.972473
2022-09-02T07:15:09.224Z,1017.994812
2022-09-02T07:16:11.479Z,1018.00293
2022-09-02T07:16:21.807Z,1018.00293
2022-09-02T07:17:11.816Z,1018.023499
2022-09-02T07:18:08.952Z,1018.082397
2022-09-02T07:19:17.243Z,1018.04541
2022-09-02T07:19:20.637Z,1018.04541
2022-09-02T07:20:10.174Z,1018.034302
2022-09-02T07:21:11.702Z,1018.03064
2022-09-02T07:22:08.344Z,1018.005371
2022-09-02T07:23:11.855Z,1017.985901
2022-09-02T07:24:06.213Z,1018.026001
2022-09-02T07:25:07.011Z,1018.0177
2022-09-02T07:26:05.895Z,1017.963501
2022-09-02T07:27:07.487Z,1017.98291
2022-09-02T07:28:05.763Z,1018.048462
2022-09-02T07:29:11.011Z,1018.048462
2022-09-02T07:30:05.608Z,1017.99054
2022-09-02T07:31:09.696Z,1017.987671
2022-09-02T07:32:03.929Z,1018.007813
2022-09-02T07:33:08.056Z,1017.963013
2022-09-02T07:34:02.545Z,1017.98822
2022-09-02T07:35:04.660Z,1017.919678
2022-09-02T07:36:04.763Z,1017.978088
2022-09-02T07:36:10.847Z,1017.978088
2022-09-02T07:37:11.079Z,1018.034058
2022-09-02T07:38:14.196Z,1017.912598
2022-09-02T07:39:18.445Z,1017.940674
2022-09-02T07:40:12.739Z,1017.961304
2022-09-02T07:41:14.447Z,1018.004211
2022-09-02T07:42:10.997Z,1017.950134
2022-09-02T07:43:12.750Z,1017.919617
2022-09-02T07:44:10.251Z,1017.894348
2022-09-02T07:45:14.728Z,1017.879639
2022-09-02T07:46:11.956Z,1017.911499
2022-09-02T07:47:13.234Z,1017.934875
2022-09-02T07:48:12.323Z,1017.842285
2022-09-02T07:49:16.895Z,1017.874146
2022-09-02T07:50:19.703Z,1017.878723
2022-09-02T07:50:20.796Z,1017.878723
2022-09-02T07:51:15.053Z,1017.899231
2022-09-02T07:52:12.459Z,1017.87677
2022-09-02T07:53:16.216Z,1017.827271
2022-09-02T07:55:15.100Z,1017.785461
2022-09-02T07:56:10.998Z,1017.833191
2022-09-02T07:57:48.589Z,1017.798523
2022-09-02T07:58:28.904Z,1017.756165
2022-09-02T07:59:27.356Z,1017.768127
2022-09-02T08:00:28.409Z,1017.712646
2022-09-02T08:01:24.116Z,1017.734314
2022-09-02T08:02:24.057Z,1017.770569
2022-09-02T08:03:19.560Z,1017.721008
2022-09-02T08:04:19.784Z,1017.791992
2022-09-02T08:05:15.114Z,1017.804993
2022-09-02T08:06:14.448Z,1017.76947
2022-09-02T08:07:09.805Z,1017.758057
2022-09-02T08:08:09.411Z,1017.730957
2022-09-02T08:10:07.293Z,1017.70105
2022-09-02T08:10:59.722Z,1017.756104
2022-09-02T08:11:59.560Z,1017.701782
2022-09-02T08:12:54.384Z,1017.698669
2022-09-02T08:13:54.548Z,1017.749817
2022-09-02T08:14:49.832Z,1017.7146
2022-09-02T08:15:51.854Z,1017.762207
2022-09-02T08:16:44.868Z,1017.790649
2022-09-02T08:17:44.910Z,1017.788635
2022-09-02T08:18:40.503Z,1017.805603
2022-09-02T08:19:40.351Z,1017.779297
2022-09-02T08:20:35.816Z,1017.679749
2022-09-02T08:21:38.522Z,1017.708069
2022-09-02T08:24:28.669Z,1017.654907
2022-09-02T08:25:26.936Z,1017.695618
2022-09-02T08:26:27.525Z,1017.713135
2022-09-02T08:27:23.078Z,1017.705933
2022-09-02T08:28:26.467Z,1017.742126
2022-09-02T08:30:20.212Z,1017.711243
2022-09-02T08:31:15.745Z,1017.712952
2022-09-02T08:32:13.998Z,1017.659241
2022-09-02T08:33:51.369Z,1017.693604
2022-09-02T08:34:31.618Z,1017.649292
2022-09-02T08:35:29.374Z,1017.72168
2022-09-02T08:36:29.879Z,1017.71936
2022-09-02T08:37:26.103Z,1017.684875
2022-09-02T08:38:26.448Z,1017.643982
2022-09-02T08:40:23.087Z,1017.63324
2022-09-02T08:41:18.611Z,1017.627319
2022-09-02T08:42:18.684Z,1017.6828
2022-09-02T08:43:13.989Z,1017.593201
2022-09-02T08:44:13.638Z,1017.574097
2022-09-02T08:45:09.075Z,1017.609192
2022-09-02T08:46:09.311Z,1017.65564
2022-09-02T08:47:04.266Z,1017.52301
2022-09-02T08:48:03.904Z,1017.499451
2022-09-02T08:49:59.227Z,1017.542297
2022-09-02T08:50:55.485Z,1017.56604
2022-09-02T08:51:54.615Z,1017.497009
2022-09-02T08:52:50.058Z,1017.629395
2022-09-02T08:54:47.519Z,1017.598938
2022-09-02T08:55:42.954Z,1017.638367
2022-09-02T08:56:42.276Z,1017.577087
2022-09-02T08:57:43.332Z,1017.565735
2022-09-02T08:58:35.570Z,1017.613281
2022-09-02T08:59:35.598Z,1017.570801
2022-09-02T09:00:31.048Z,1017.536743
2022-09-02T09:01:34.248Z,1017.580627
2022-09-02T09:02:27.316Z,1017.504883
2022-09-02T09:03:30.080Z,1017.525269
2022-09-02T09:05:22.702Z,1017.383728
2022-09-02T09:06:20.727Z,1017.419861
2022-09-02T09:07:17.935Z,1017.362305
2022-09-02T09:11:06.034Z,1017.292786
2022-09-02T09:11:44.738Z,1017.302673
2022-09-02T09:12:41.878Z,1017.26062
2022-09-02T09:13:41.551Z,1017.282593
2022-09-02T09:14:36.969Z,1017.235596
2022-09-02T09:15:34.165Z,1017.231201
2022-09-02T09:16:30.304Z,1017.27301
2022-09-02T09:17:27.218Z,1017.229858
2022-09-02T09:18:26.521Z,1017.209656
2022-09-02T09:20:18.695Z,1017.282898
2022-09-02T09:21:15.065Z,1017.262634
2022-09-02T09:22:14.091Z,1017.259033
2022-09-02T09:23:07.925Z,1017.239807
2022-09-02T09:25:01.909Z,1017.274841
2022-09-02T09:25:59.028Z,1017.166321
2022-09-02T09:26:58.077Z,1017.206665
2022-09-02T09:27:52.370Z,1017.183838
2022-09-02T09:29:47.621Z,1017.231201
2022-09-02T09:30:41.685Z,1017.142395
2022-09-02T09:31:38.837Z,1017.07251
2022-09-02T09:32:37.767Z,1017.127747
2022-09-02T09:33:32.071Z,1017.089172
2022-09-02T09:34:34.075Z,1017.07428
2022-09-02T09:35:25.995Z,1017.03302
2022-09-02T09:37:11.223Z,1016.891907
2022-09-02T09:37:50.996Z,1016.873718
2022-09-02T09:39:46.353Z,1016.887451
2022-09-02T09:40:44.359Z,1016.922241
2022-09-02T09:41:43.536Z,1016.899353
2022-09-02T09:42:41.325Z,1016.857361
2022-09-02T09:44:35.778Z,1016.826111
2022-09-02T09:45:33.186Z,1016.854736
2022-09-02T09:46:32.918Z,1016.839172
2022-09-02T09:47:27.721Z,1016.757385
2022-09-02T09:48:29.965Z,1016.827759
2022-09-02T09:50:26.422Z,1016.774658
2022-09-02T09:51:18.899Z,1016.7323
2022-09-02T09:52:21.601Z,1016.814758
2022-09-02T09:53:14.298Z,1016.729797
2022-09-02T09:54:16.680Z,1016.741455
2022-09-02T09:55:11.556Z,1016.64093
2022-09-02T09:56:07.932Z,1016.649597
2022-09-02T09:57:08.184Z,1016.607239
2022-09-02T09:58:03.316Z,1016.68988
2022-09-02T10:01:03.745Z,1016.745789
2022-09-02T10:01:56.588Z,1016.668274
2022-09-02T10:02:59.063Z,1016.723511
2022-09-02T10:04:54.607Z,1016.670349
2022-09-02T10:05:47.187Z,1016.666809
2022-09-02T10:06:44.898Z,1016.624573
2022-09-02T10:07:45.199Z,1016.690796
2022-09-02T10:08:39.227Z,1016.608521
2022-09-02T10:09:41.189Z,1016.654602
2022-09-02T10:10:33.513Z,1016.673584
2022-09-02T10:11:32.874Z,1016.654602
2022-09-02T10:12:30.386Z,1016.684998
2022-09-02T10:15:05.002Z,1016.811951
2022-09-02T10:16:00.216Z,1016.70697
2022-09-02T10:17:00.411Z,1016.757324
2022-09-02T10:17:56.215Z,1016.741638
2022-09-02T10:19:35.089Z,1016.671143
2022-09-02T10:20:14.467Z,1016.706482
2022-09-02T10:21:15.642Z,1016.620911
2022-09-02T10:22:13.942Z,1016.616577
2022-09-02T10:23:09.515Z,1016.663391
2022-09-02T10:25:04.956Z,1016.638733
2022-09-02T10:26:04.654Z,1016.641602
2022-09-02T10:27:00.651Z,1016.684143
2022-09-02T10:27:59.344Z,1016.652588
2022-09-02T10:28:54.390Z,1016.632507
2022-09-02T10:29:56.024Z,1016.620056
2022-09-02T10:30:48.719Z,1016.658936
2022-09-02T10:31:50.728Z,1016.623901
2022-09-02T10:32:42.778Z,1016.580811
2022-09-02T10:34:40.979Z,1016.579956
2022-09-02T10:35:39.999Z,1016.56781
2022-09-02T10:36:35.144Z,1016.610657
2022-09-02T10:37:34.803Z,1016.497131
2022-09-02T10:38:31.175Z,1016.547363
2022-09-02T10:40:30.516Z,1016.562134
2022-09-02T10:41:27.611Z,1016.511536
2022-09-02T10:42:27.802Z,1016.487366
2022-09-02T10:43:22.779Z,1016.612
2022-09-02T10:45:17.235Z,1016.451721
2022-09-02T10:46:18.953Z,1016.443787
2022-09-02T10:47:11.051Z,1016.43219
2022-09-02T10:48:15.338Z,1016.43219
2022-09-02T10:50:09.654Z,1016.463196
2022-09-02T10:51:09.886Z,1016.440552
2022-09-02T10:52:04.574Z,1016.441223
2022-09-02T10:53:05.958Z,1016.475891
2022-09-02T10:54:57.876Z,1016.484192
2022-09-02T10:56:00.003Z,1016.476013
2022-09-02T10:56:52.620Z,1016.530518
2022-09-02T10:58:15.549Z,1016.457092
2022-09-02T10:58:56.272Z,1016.421448
2022-09-02T10:59:55.761Z,1016.449829
2022-09-02T11:00:56.294Z,1016.461426
2022-09-02T11:01:55.604Z,1016.409912
2022-09-02T11:02:54.488Z,1016.476013
2022-09-02T11:03:50.063Z,1016.476013
2022-09-02T11:04:50.111Z,1016.421204
2022-09-02T11:04:55.289Z,1016.421204
2022-09-02T11:05:48.882Z,1016.363037
2022-09-02T11:07:02.554Z,1016.42981
2022-09-02T11:07:03.058Z,1016.42981
2022-09-02T11:07:03.338Z,1016.42981
2022-09-02T11:07:46.326Z,1016.449829
2022-09-02T11:08:41.809Z,1016.431213
2022-09-02T11:10:37.987Z,1016.478577
2022-09-02T11:11:38.358Z,1016.388428
2022-09-02T11:12:34.813Z,1016.380859
2022-09-02T11:13:34.687Z,1016.368286
2022-09-02T11:15:30.868Z,1016.403809
2022-09-02T11:15:36.122Z,1016.403809
2022-09-02T11:16:30.242Z,1016.384094
2022-09-02T11:17:26.185Z,1016.37262
2022-09-02T11:18:27.025Z,1016.399902
2022-09-02T11:20:27.441Z,1016.411438
2022-09-02T11:21:20.527Z,1016.317993
2022-09-02T11:22:27.286Z,1016.333862
2022-09-02T11:23:19.533Z,1016.330627
2022-09-02T11:25:15.365Z,1016.27655
2022-09-02T11:26:10.936Z,1016.249084
2022-09-02T11:27:32.091Z,1016.299866
2022-09-02T11:27:32.289Z,1016.299866
2022-09-02T11:27:32.416Z,1016.299866
2022-09-02T11:28:10.839Z,1016.265442
2022-09-02T11:29:07.187Z,1016.223694
2022-09-02T11:30:07.623Z,1016.278503
2022-09-02T11:31:03.811Z,1016.205017
2022-09-02T11:32:04.493Z,1016.248169
2022-09-02T11:33:00.508Z,1016.251221
2022-09-02T11:34:58.895Z,1016.21228
2022-09-02T11:35:55.060Z,1016.223694
2022-09-02T11:36:56.328Z,1016.196411
2022-09-02T11:37:53.520Z,1016.220276
2022-09-02T11:39:54.393Z,1016.196594
2022-09-02T11:40:11.180Z,1016.196594
2022-09-02T11:40:17.331Z,1016.196594
2022-09-02T11:41:50.272Z,1016.210815
2022-09-02T11:42:50.814Z,1016.204285
2022-09-02T11:43:47.494Z,1016.212219
2022-09-02T11:44:52.861Z,1016.141846
2022-09-02T11:46:16.956Z,1016.173401
2022-09-02T11:46:57.900Z,1016.17395
2022-09-02T11:47:58.479Z,1016.107971
2022-09-02T11:49:53.306Z,1016.202454
2022-09-02T11:50:52.394Z,1016.151123
2022-09-02T11:51:47.595Z,1016.132141
2022-09-02T11:52:50.254Z,1016.077515
2022-09-02T11:53:42.827Z,1016.116272
2022-09-02T11:55:39.345Z,1016.022888
2022-09-02T11:56:37.558Z,1016.100708
2022-09-02T11:57:35.853Z,1015.972595
2022-09-02T11:58:31.159Z,1016.007263
2022-09-02T12:00:27.677Z,1016.058655
2022-09-02T12:01:25.613Z,1016.132324
2022-09-02T12:02:25.473Z,1016.143921
2022-09-02T12:03:40.303Z,1016.175293
2022-09-02T12:03:41.214Z,1016.175293
2022-09-02T12:04:06.741Z,1016.175293
2022-09-02T12:05:17.747Z,1016.032104
2022-09-02T12:06:20.301Z,1015.978516
2022-09-02T12:07:14.164Z,1016.02594
2022-09-02T12:08:16.947Z,1016.006226
2022-09-02T12:09:10.502Z,1015.998596